createdAt,value
2023-03-26T00:03:29.804Z,97092.00
2023-03-26T00:07:30.766Z,97100.00
2023-03-26T00:11:32.123Z,97101.00
2023-03-26T00:15:35.115Z,97101.00
2023-03-26T00:19:37.391Z,97112.00
2023-03-26T00:23:38.837Z,97107.00
2023-03-26T00:27:44.985Z,97112.00
2023-03-26T00:31:45.997Z,97100.00
2023-03-26T00:35:53.399Z,97106.00
2023-03-26T00:39:57.430Z,97117.00
2023-03-26T00:44:00.292Z,97083.00
2023-03-26T00:48:02.756Z,97077.00
2023-03-26T00:52:04.310Z,97079.00
2023-03-26T00:56:06.627Z,97077.00
2023-03-26T01:00:12.573Z,97079.00
2023-03-26T01:04:25.469Z,97019.00
2023-03-26T01:08:32.344Z,97074.00
2023-03-26T01:12:33.535Z,97068.00
2023-03-26T01:16:38.365Z,97078.00
2023-03-26T01:20:44.092Z,97083.00
2023-03-26T01:24:47.331Z,97073.00
2023-03-26T01:28:50.622Z,97065.00
2023-03-26T01:33:13.475Z,97062.00
2023-03-26T01:37:21.628Z,97059.00
2023-03-26T01:41:31.730Z,97055.00
2023-03-26T01:45:36.648Z,97044.00
2023-03-26T01:49:37.774Z,97043.00
2023-03-26T01:53:47.141Z,97034.00
2023-03-26T01:58:04.021Z,97036.00
2023-03-26T02:02:11.655Z,97027.00
2023-03-26T02:06:33.849Z,97023.00
2023-03-26T02:10:38.159Z,97022.00
2023-03-26T02:14:39.280Z,97024.00
2023-03-26T02:18:40.590Z,97018.00
2023-03-26T02:22:43.734Z,97018.00
2023-03-26T02:26:45.213Z,97007.00
2023-03-26T02:30:46.943Z,97000.00
2023-03-26T02:34:49.960Z,96997.00
2023-03-26T02:38:51.168Z,96991.00
2023-03-26T02:42:52.314Z,96991.00
2023-03-26T02:46:53.850Z,96979.00
2023-03-26T02:50:55.009Z,96976.00
2023-03-26T02:54:56.215Z,96970.00
2023-03-26T02:58:57.373Z,96972.00
2023-03-26T03:02:58.908Z,96962.00
2023-03-26T03:07:00.341Z,96965.00
2023-03-26T03:11:04.666Z,96956.00
2023-03-26T03:15:07.117Z,96961.00
2023-03-26T03:19:08.363Z,96963.00
2023-03-26T03:23:09.330Z,96956.00
2023-03-26T03:27:10.410Z,96944.00
2023-03-26T03:31:11.529Z,96944.00
2023-03-26T03:35:13.170Z,96936.00
2023-03-26T03:39:14.960Z,96928.00
2023-03-26T03:43:16.258Z,96921.00
2023-03-26T03:47:17.308Z,96934.00
2023-03-26T03:51:18.508Z,96921.00
2023-03-26T03:55:19.612Z,96915.00
2023-03-26T03:59:20.836Z,96907.00
2023-03-26T04:03:33.545Z,96898.00
2023-03-26T04:07:25.566Z,96884.00
2023-03-26T04:11:26.692Z,96890.00
2023-03-26T04:15:27.846Z,96883.00
2023-03-26T04:19:28.840Z,96871.00
2023-03-26T04:23:30.932Z,96869.00
2023-03-26T04:27:34.813Z,96862.00
2023-03-26T04:31:37.660Z,96864.00
2023-03-26T04:35:40.767Z,96862.00
2023-03-26T04:39:41.771Z,96863.00
2023-03-26T04:43:44.832Z,96853.00
2023-03-26T04:47:47.730Z,96849.00
2023-03-26T04:51:48.828Z,96842.00
2023-03-26T04:56:02.030Z,96840.00
2023-03-26T05:00:10.031Z,96824.00
2023-03-26T05:04:12.836Z,96821.00
2023-03-26T05:08:13.944Z,96805.00
2023-03-26T05:12:15.924Z,96794.00
2023-03-26T05:16:17.234Z,96788.00
2023-03-26T05:20:21.705Z,96777.00
2023-03-26T05:24:23.973Z,96772.00
2023-03-26T05:28:25.932Z,96764.00
2023-03-26T05:32:27.040Z,96756.00
2023-03-26T05:36:28.679Z,96763.00
2023-03-26T05:40:29.643Z,96735.00
2023-03-26T05:44:30.624Z,96740.00
2023-03-26T05:48:31.753Z,96740.00
2023-03-26T05:52:33.043Z,96731.00
2023-03-26T05:56:34.160Z,96718.00
2023-03-26T06:00:37.135Z,96723.00
2023-03-26T06:04:40.359Z,96707.00
2023-03-26T06:08:42.918Z,96700.00
2023-03-26T06:12:43.863Z,96699.00
2023-03-26T06:16:44.991Z,96700.00
2023-03-26T06:20:46.685Z,96687.00
2023-03-26T06:24:47.821Z,96679.00
2023-03-26T06:28:48.949Z,96677.00
2023-03-26T06:32:50.116Z,96669.00
2023-03-26T06:36:52.128Z,96664.00
2023-03-26T06:40:53.378Z,96662.00
2023-03-26T06:44:54.529Z,96662.00
2023-03-26T06:48:55.479Z,96665.00
2023-03-26T06:52:56.412Z,96659.00
2023-03-26T06:56:59.184Z,96647.00
2023-03-26T07:01:00.395Z,96639.00
2023-03-26T07:05:01.439Z,96641.00
2023-03-26T07:09:02.830Z,96634.00
2023-03-26T07:13:03.946Z,96636.00
2023-03-26T07:17:05.174Z,96632.00
2023-03-26T07:21:07.162Z,96632.00
2023-03-26T07:25:09.662Z,96634.00
2023-03-26T07:29:31.221Z,96623.00
2023-03-26T07:33:38.966Z,96625.00
2023-03-26T07:37:59.264Z,96466.00
2023-03-26T07:42:22.330Z,96618.00
2023-03-26T07:46:33.297Z,96593.00
2023-03-26T07:50:34.794Z,96596.00
2023-03-26T07:54:36.138Z,96584.00
2023-03-26T07:59:05.294Z,96587.00
2023-03-26T08:03:10.230Z,96573.00
2023-03-26T08:07:33.391Z,96584.00
2023-03-26T08:11:53.223Z,96576.00
2023-03-26T08:16:02.833Z,96570.00
2023-03-26T08:20:19.914Z,96576.00
2023-03-26T08:24:30.962Z,96565.00
2023-03-26T08:28:38.855Z,96560.00
2023-03-26T08:32:40.200Z,96554.00
2023-03-26T08:36:41.728Z,96561.00
2023-03-26T08:40:58.534Z,96549.00
2023-03-26T08:45:18.204Z,96550.00
2023-03-26T08:49:48.769Z,96548.00
2023-03-26T08:54:02.967Z,96541.00
2023-03-26T08:58:17.021Z,96525.00
2023-03-26T09:02:38.437Z,96517.00
2023-03-26T09:06:52.268Z,96497.00
2023-03-26T09:10:57.331Z,96490.00
2023-03-26T09:15:05.182Z,96494.00
2023-03-26T09:19:29.349Z,96494.00
2023-03-26T09:23:55.323Z,96492.00
2023-03-26T09:28:22.890Z,96494.00
2023-03-26T09:32:52.841Z,96410.00
2023-03-26T09:37:01.534Z,96477.00
2023-03-26T09:41:12.324Z,96468.00
2023-03-26T09:45:17.176Z,96465.00
2023-03-26T09:49:53.905Z,96476.00
2023-03-26T09:54:31.791Z,96467.00
2023-03-26T09:58:51.537Z,96466.00
2023-03-26T10:03:04.872Z,96462.00
2023-03-26T10:07:18.943Z,96463.00
2023-03-26T10:11:43.183Z,96450.00
2023-03-26T10:15:59.644Z,96451.00
2023-03-26T10:20:20.786Z,96449.00
2023-03-26T10:24:42.034Z,96444.00
2023-03-26T10:28:56.237Z,96431.00
2023-03-26T10:33:20.511Z,96418.00
2023-03-26T10:37:31.178Z,96427.00
2023-03-26T10:41:45.064Z,96422.00
2023-03-26T10:45:59.008Z,96423.00
2023-03-26T10:50:12.848Z,96403.00
2023-03-26T10:54:20.436Z,96405.00
2023-03-26T10:58:28.958Z,96407.00
2023-03-26T11:02:33.730Z,96402.00
2023-03-26T11:06:44.416Z,96415.00
2023-03-26T11:10:49.572Z,96403.00
2023-03-26T11:15:15.852Z,96395.00
2023-03-26T11:19:27.221Z,96406.00
2023-03-26T11:23:41.019Z,96408.00
2023-03-26T11:28:12.213Z,96391.00
2023-03-26T11:32:23.238Z,96398.00
2023-03-26T11:36:30.180Z,96403.00
2023-03-26T11:40:45.719Z,96389.00
2023-03-26T11:45:02.395Z,96383.00
2023-03-26T11:49:08.623Z,96386.00
2023-03-26T11:53:12.796Z,96370.00
2023-03-26T11:57:17.651Z,96364.00
2023-03-26T12:01:30.208Z,96368.00
2023-03-26T12:05:33.207Z,96365.00
2023-03-26T12:09:34.339Z,96364.00
2023-03-26T12:13:45.353Z,96362.00
2023-03-26T12:17:55.797Z,96352.00
2023-03-26T12:21:56.883Z,96342.00
2023-03-26T12:26:20.108Z,96346.00
2023-03-26T12:30:27.605Z,96338.00
2023-03-26T12:34:38.903Z,96339.00
2023-03-26T12:38:41.845Z,96336.00
2023-03-26T12:44:47.212Z,96327.00
2023-03-26T12:47:55.382Z,96319.00
2023-03-26T12:51:13.808Z,96316.00
2023-03-26T12:55:24.886Z,96313.00
2023-03-26T12:59:46.131Z,96317.00
2023-03-26T13:04:05.369Z,96311.00
2023-03-26T13:08:22.126Z,96310.00
2023-03-26T13:12:33.885Z,96290.00
2023-03-26T13:17:04.573Z,96309.00
2023-03-26T13:21:42.998Z,96304.00
2023-03-26T13:26:07.076Z,96293.00
2023-03-26T13:30:26.386Z,96297.00
2023-03-26T13:34:37.690Z,96279.00
2023-03-26T13:38:58.917Z,96266.00
2023-03-26T13:43:01.995Z,96180.00
2023-03-26T13:47:06.884Z,96256.00
2023-03-26T13:51:26.913Z,96245.00
2023-03-26T13:55:44.170Z,96255.00
2023-03-26T13:59:49.043Z,96242.00
2023-03-26T14:03:59.591Z,96243.00
2023-03-26T14:08:16.973Z,96233.00
2023-03-26T14:12:22.154Z,96232.00
2023-03-26T14:16:26.993Z,96229.00
2023-03-26T14:20:55.537Z,96236.00
2023-03-26T14:25:00.609Z,96248.00
2023-03-26T14:29:41.333Z,96251.00
2023-03-26T14:34:01.782Z,96281.00
2023-03-26T14:38:15.977Z,96261.00
2023-03-26T14:42:23.948Z,96246.00
2023-03-26T14:46:55.637Z,96242.00
2023-03-26T14:51:13.175Z,96245.00
2023-03-26T14:55:30.068Z,96252.00
2023-03-26T14:59:57.747Z,96266.00
2023-03-26T15:04:36.313Z,96260.00
2023-03-26T15:08:59.201Z,96264.00
2023-03-26T15:13:06.819Z,96252.00
2023-03-26T15:17:20.645Z,96262.00
2023-03-26T15:21:43.871Z,96287.00
2023-03-26T15:26:07.072Z,96322.00
2023-03-26T15:30:27.847Z,96330.00
2023-03-26T15:34:54.026Z,96338.00
2023-03-26T15:39:27.045Z,96337.00
2023-03-26T15:43:54.889Z,96347.00
2023-03-26T15:48:02.335Z,96348.00
2023-03-26T15:52:23.784Z,96329.00
2023-03-26T15:56:51.527Z,96320.00
2023-03-26T16:01:19.932Z,96315.00
2023-03-26T16:05:31.557Z,96314.00
2023-03-26T16:09:49.248Z,96295.00
2023-03-26T16:14:12.659Z,96306.00
2023-03-26T16:18:19.515Z,96308.00
2023-03-26T16:22:43.524Z,96311.00
2023-03-26T16:27:05.899Z,96308.00
2023-03-26T16:31:36.483Z,96309.00
2023-03-26T16:35:39.237Z,96333.00
2023-03-26T16:39:43.442Z,96342.00
2023-03-26T16:44:09.835Z,96356.00
2023-03-26T16:48:17.484Z,96351.00
2023-03-26T16:52:25.068Z,96365.00
2023-03-26T16:56:38.557Z,96361.00
2023-03-26T17:01:15.324Z,96369.00
2023-03-26T17:05:25.679Z,96372.00
2023-03-26T17:09:33.740Z,96373.00
2023-03-26T17:13:58.031Z,96381.00
2023-03-26T17:18:22.471Z,96384.00
2023-03-26T17:22:36.232Z,96382.00
2023-03-26T17:27:00.331Z,96385.00
2023-03-26T17:31:25.752Z,96388.00
2023-03-26T17:35:39.616Z,96387.00
2023-03-26T17:39:47.093Z,96391.00
2023-03-26T17:43:50.795Z,96399.00
2023-03-26T17:48:21.249Z,96400.00
2023-03-26T17:52:25.451Z,96402.00
2023-03-26T17:56:29.375Z,96413.00
2023-03-26T18:00:34.837Z,96408.00
2023-03-26T18:04:39.359Z,96402.00
2023-03-26T18:09:00.548Z,96400.00
2023-03-26T18:13:26.537Z,96409.00
2023-03-26T18:17:31.435Z,96406.00
2023-03-26T18:21:35.690Z,96403.00
2023-03-26T18:25:37.809Z,96407.00
2023-03-26T18:30:01.962Z,96421.00
2023-03-26T18:34:04.657Z,96423.00
2023-03-26T18:38:06.107Z,96430.00
2023-03-26T18:42:10.942Z,96421.00
2023-03-26T18:46:14.181Z,96423.00
2023-03-26T18:50:18.329Z,96427.00
2023-03-26T18:54:20.789Z,96432.00
2023-03-26T18:58:36.392Z,96426.00
2023-03-26T19:02:38.472Z,96438.00
2023-03-26T19:06:42.208Z,96443.00
2023-03-26T19:10:46.888Z,96432.00
2023-03-26T19:14:56.734Z,96443.00
2023-03-26T19:18:59.752Z,96470.00
2023-03-26T19:23:00.866Z,96460.00
2023-03-26T19:27:03.105Z,96466.00
2023-03-26T19:31:11.845Z,96468.00
2023-03-26T19:35:22.199Z,96464.00
2023-03-26T19:39:36.537Z,96471.00
2023-03-26T19:43:28.904Z,96477.00
2023-03-26T19:51:45.095Z,96484.00
2023-03-26T19:55:55.130Z,96477.00
2023-03-26T19:59:56.755Z,96478.00
2023-03-26T20:04:06.537Z,96497.00
2023-03-26T20:08:13.989Z,96501.00
2023-03-26T20:12:15.125Z,96509.00
2023-03-26T20:16:32.957Z,96509.00
2023-03-26T20:20:36.033Z,96512.00
2023-03-26T20:24:37.074Z,96478.00
2023-03-26T20:28:47.298Z,96522.00
2023-03-26T20:32:43.183Z,96536.00
2023-03-26T20:36:46.067Z,96533.00
2023-03-26T20:40:48.535Z,96560.00
2023-03-26T20:44:49.717Z,96562.00
2023-03-26T20:48:51.320Z,96561.00
2023-03-26T20:52:52.889Z,96577.00
2023-03-26T20:56:54.304Z,96583.00
2023-03-26T21:00:59.639Z,96592.00
2023-03-26T21:05:00.919Z,96595.00
2023-03-26T21:09:03.392Z,96583.00
2023-03-26T21:13:17.089Z,96602.00
2023-03-26T21:17:21.441Z,96622.00
2023-03-26T21:21:45.477Z,96616.00
2023-03-26T21:25:52.298Z,96638.00
2023-03-26T21:29:54.362Z,96637.00
2023-03-26T21:33:56.379Z,96646.00
2023-03-26T21:38:00.815Z,96656.00
2023-03-26T21:42:05.003Z,96657.00
2023-03-26T21:46:06.066Z,96665.00
2023-03-26T21:50:08.645Z,96657.00
2023-03-26T21:54:25.278Z,96682.00
2023-03-26T21:58:55.462Z,96702.00
2023-03-26T22:03:03.368Z,96701.00
2023-03-26T22:07:14.122Z,96709.00
2023-03-26T22:11:15.133Z,96736.00
2023-03-26T22:15:17.556Z,96727.00
2023-03-26T22:19:18.569Z,96750.00
2023-03-26T22:23:20.340Z,96745.00
2023-03-26T22:27:21.493Z,96756.00
2023-03-26T22:31:26.319Z,96779.00
2023-03-26T22:35:27.514Z,96767.00
2023-03-26T22:39:28.760Z,96795.00
2023-03-26T22:43:29.979Z,96801.00
2023-03-26T22:47:32.926Z,96816.00
2023-03-26T22:51:34.068Z,96819.00
2023-03-26T22:55:35.851Z,96826.00
2023-03-26T22:59:36.972Z,96832.00
2023-03-26T23:03:38.791Z,96845.00
2023-03-26T23:07:41.710Z,96856.00
2023-03-26T23:11:42.874Z,96864.00
2023-03-26T23:15:44.639Z,96875.00
2023-03-26T23:19:46.083Z,96886.00
2023-03-26T23:23:48.778Z,96892.00
2023-03-26T23:27:50.082Z,96875.00
2023-03-26T23:31:52.356Z,96893.00
2023-03-26T23:35:59.072Z,96908.00
2023-03-26T23:40:00.246Z,96913.00
2023-03-26T23:44:01.536Z,96921.00
2023-03-26T23:48:03.652Z,96929.00
2023-03-26T23:52:05.193Z,96934.00
2023-03-26T23:56:06.748Z,96950.00
